South Brunswick, New Jersey
Current Conditions -  °F | °C
As of 2:53 AM on Tuesday 27 Jan 2015 (Local Time) from KTTN Reporting Station
Light Snow Light Snow  
Wind Chill: 11°   Ceiling: 2000
Heat Index: 23°   Visibility: 1.5mi
Dew Point: 18°   Wind: 13mph
Humidity: 81%   Direction: 350°N
Pressure: 29.69"   Gusts: NA
Location:  40.3793°N, 74.4959°W
Report Text: KTTN 270753Z 35011KT 1 1/2SM -SN BKN020 OVC031 M05/M08 A2969 RMK AO2 SLP049 P0000 T10501078
Loading
Personal Weather Stations






























Interactive Weather Map New forecast layout! Learn more

10-Day Weather Forecast

Advertisements
Track Severe Weather on mobile